sensor_id;sensor_type;location;lat;lon;timestamp;temperature;humidity
15239;DHT22;7722;53.274;9.500;2022-09-09T00:02:18;13.80;99.90
15239;DHT22;7722;53.274;9.500;2022-09-09T00:04:53;13.70;99.90
15239;DHT22;7722;53.274;9.500;2022-09-09T00:07:27;13.70;99.90
15239;DHT22;7722;53.274;9.500;2022-09-09T00:10:09;13.60;99.90
15239;DHT22;7722;53.274;9.500;2022-09-09T00:12:43;13.60;99.90
15239;DHT22;7722;53.274;9.500;2022-09-09T00:15:19;13.50;99.90
15239;DHT22;7722;53.274;9.500;2022-09-09T00:17:52;13.50;99.90
15239;DHT22;7722;53.274;9.500;2022-09-09T00:20:23;13.30;99.90
15239;DHT22;7722;53.274;9.500;2022-09-09T00:22:56;13.30;99.90
15239;DHT22;7722;53.274;9.500;2022-09-09T00:25:31;13.40;99.90
15239;DHT22;7722;53.274;9.500;2022-09-09T00:28:04;13.40;99.90
15239;DHT22;7722;53.274;9.500;2022-09-09T00:30:38;13.20;99.90
15239;DHT22;7722;53.274;9.500;2022-09-09T00:33:11;13.20;99.90
15239;DHT22;7722;53.274;9.500;2022-09-09T00:35:44;13.20;99.90
15239;DHT22;7722;53.274;9.500;2022-09-09T00:38:14;13.20;99.90
15239;DHT22;7722;53.274;9.500;2022-09-09T00:40:49;13.20;99.90
15239;DHT22;7722;53.274;9.500;2022-09-09T00:43:26;13.20;99.90
15239;DHT22;7722;53.274;9.500;2022-09-09T00:46:12;13.20;99.90
15239;DHT22;7722;53.274;9.500;2022-09-09T00:48:50;13.10;99.90
15239;DHT22;7722;53.274;9.500;2022-09-09T00:51:27;13.10;99.90
15239;DHT22;7722;53.274;9.500;2022-09-09T00:54:22;13.10;99.90
15239;DHT22;7722;53.274;9.500;2022-09-09T00:57:13;13.10;99.90
15239;DHT22;7722;53.274;9.500;2022-09-09T00:59:47;13.10;99.90
15239;DHT22;7722;53.274;9.500;2022-09-09T01:02:22;13.10;99.90
15239;DHT22;7722;53.274;9.500;2022-09-09T01:04:52;13.10;99.90
15239;DHT22;7722;53.274;9.500;2022-09-09T01:07:20;13.10;99.90
15239;DHT22;7722;53.274;9.500;2022-09-09T01:09:56;13.10;99.90
15239;DHT22;7722;53.274;9.500;2022-09-09T01:12:34;13.10;99.90
15239;DHT22;7722;53.274;9.500;2022-09-09T01:15:09;13.10;99.90
15239;DHT22;7722;53.274;9.500;2022-09-09T01:17:46;13.10;99.90
15239;DHT22;7722;53.274;9.500;2022-09-09T01:20:19;13.10;99.90
15239;DHT22;7722;53.274;9.500;2022-09-09T01:22:59;13.10;99.90
15239;DHT22;7722;53.274;9.500;2022-09-09T01:25:56;13.20;99.90
15239;DHT22;7722;53.274;9.500;2022-09-09T01:28:28;13.20;99.90
15239;DHT22;7722;53.274;9.500;2022-09-09T01:30:56;13.20;99.90
15239;DHT22;7722;53.274;9.500;2022-09-09T01:33:24;13.30;99.90
15239;DHT22;7722;53.274;9.500;2022-09-09T01:35:55;13.40;99.90
15239;DHT22;7722;53.274;9.500;2022-09-09T01:38:25;13.40;99.90
15239;DHT22;7722;53.274;9.500;2022-09-09T01:40:54;13.40;99.90
15239;DHT22;7722;53.274;9.500;2022-09-09T01:43:22;13.50;99.90
15239;DHT22;7722;53.274;9.500;2022-09-09T01:45:53;13.50;99.90
15239;DHT22;7722;53.274;9.500;2022-09-09T01:48:21;13.60;99.90
15239;DHT22;7722;53.274;9.500;2022-09-09T01:50:49;13.60;99.90
15239;DHT22;7722;53.274;9.500;2022-09-09T01:53:17;13.60;99.90
15239;DHT22;7722;53.274;9.500;2022-09-09T01:55:52;13.60;99.90
15239;DHT22;7722;53.274;9.500;2022-09-09T01:58:32;13.60;99.90
15239;DHT22;7722;53.274;9.500;2022-09-09T02:01:06;13.60;99.90
15239;DHT22;7722;53.274;9.500;2022-09-09T02:03:36;13.60;99.90
15239;DHT22;7722;53.274;9.500;2022-09-09T02:06:10;13.60;99.90
15239;DHT22;7722;53.274;9.500;2022-09-09T02:08:45;13.60;99.90
15239;DHT22;7722;53.274;9.500;2022-09-09T02:11:14;13.60;99.90
15239;DHT22;7722;53.274;9.500;2022-09-09T02:13:45;13.70;99.90
15239;DHT22;7722;53.274;9.500;2022-09-09T02:16:24;13.60;99.90
15239;DHT22;7722;53.274;9.500;2022-09-09T02:19:01;13.50;99.90
15239;DHT22;7722;53.274;9.500;2022-09-09T02:21:37;13.40;99.90
15239;DHT22;7722;53.274;9.500;2022-09-09T02:24:39;13.40;99.90
15239;DHT22;7722;53.274;9.500;2022-09-09T02:27:16;13.30;99.90
15239;DHT22;7722;53.274;9.500;2022-09-09T02:29:51;13.30;99.90
15239;DHT22;7722;53.274;9.500;2022-09-09T02:36:03;13.20;99.90
15239;DHT22;7722;53.274;9.500;2022-09-09T02:39:12;13.20;99.90
15239;DHT22;7722;53.274;9.500;2022-09-09T02:41:42;13.10;99.90
15239;DHT22;7722;53.274;9.500;2022-09-09T02:44:17;13.20;99.90
15239;DHT22;7722;53.274;9.500;2022-09-09T02:50:37;13.10;99.90
15239;DHT22;7722;53.274;9.500;2022-09-09T02:53:26;13.00;99.90
15239;DHT22;7722;53.274;9.500;2022-09-09T02:56:04;13.00;99.90
15239;DHT22;7722;53.274;9.500;2022-09-09T02:58:33;13.00;99.90
15239;DHT22;7722;53.274;9.500;2022-09-09T03:01:02;12.90;99.90
15239;DHT22;7722;53.274;9.500;2022-09-09T03:07:10;12.90;99.90
15239;DHT22;7722;53.274;9.500;2022-09-09T03:09:37;12.90;99.90
15239;DHT22;7722;53.274;9.500;2022-09-09T03:12:04;12.90;99.90
15239;DHT22;7722;53.274;9.500;2022-09-09T03:14:32;12.80;99.90
15239;DHT22;7722;53.274;9.500;2022-09-09T03:17:00;12.80;99.90
15239;DHT22;7722;53.274;9.500;2022-09-09T03:19:28;12.80;99.90
15239;DHT22;7722;53.274;9.500;2022-09-09T03:21:55;12.80;99.90
15239;DHT22;7722;53.274;9.500;2022-09-09T03:24:24;12.80;99.90
15239;DHT22;7722;53.274;9.500;2022-09-09T03:26:51;12.70;99.90
15239;DHT22;7722;53.274;9.500;2022-09-09T03:29:18;12.70;99.90
15239;DHT22;7722;53.274;9.500;2022-09-09T03:31:45;12.70;99.90
15239;DHT22;7722;53.274;9.500;2022-09-09T03:34:12;12.70;99.90
15239;DHT22;7722;53.274;9.500;2022-09-09T03:36:39;12.70;99.90
15239;DHT22;7722;53.274;9.500;2022-09-09T03:39:07;12.70;99.90
15239;DHT22;7722;53.274;9.500;2022-09-09T03:41:35;12.60;99.90
15239;DHT22;7722;53.274;9.500;2022-09-09T03:44:02;12.60;99.90
15239;DHT22;7722;53.274;9.500;2022-09-09T03:46:29;12.60;99.90
15239;DHT22;7722;53.274;9.500;2022-09-09T03:48:56;12.60;99.90
15239;DHT22;7722;53.274;9.500;2022-09-09T03:51:23;12.50;99.90
15239;DHT22;7722;53.274;9.500;2022-09-09T03:53:51;12.60;99.90
15239;DHT22;7722;53.274;9.500;2022-09-09T03:56:22;12.60;99.90
15239;DHT22;7722;53.274;9.500;2022-09-09T03:58:50;12.50;99.90
15239;DHT22;7722;53.274;9.500;2022-09-09T04:01:17;12.50;99.90
15239;DHT22;7722;53.274;9.500;2022-09-09T04:03:44;12.50;99.90
15239;DHT22;7722;53.274;9.500;2022-09-09T04:06:12;12.50;99.90
15239;DHT22;7722;53.274;9.500;2022-09-09T04:08:41;12.40;99.90
15239;DHT22;7722;53.274;9.500;2022-09-09T04:11:08;12.40;99.90
15239;DHT22;7722;53.274;9.500;2022-09-09T04:13:36;12.50;99.90
15239;DHT22;7722;53.274;9.500;2022-09-09T04:16:06;12.50;99.90
15239;DHT22;7722;53.274;9.500;2022-09-09T04:18:34;12.50;99.90
15239;DHT22;7722;53.274;9.500;2022-09-09T04:21:01;12.50;99.90
15239;DHT22;7722;53.274;9.500;2022-09-09T04:23:29;12.60;99.90
15239;DHT22;7722;53.274;9.500;2022-09-09T04:25:57;12.60;99.90
15239;DHT22;7722;53.274;9.500;2022-09-09T04:28:27;12.70;99.90
15239;DHT22;7722;53.274;9.500;2022-09-09T04:30:54;12.70;99.90
15239;DHT22;7722;53.274;9.500;2022-09-09T04:33:24;12.70;99.90
15239;DHT22;7722;53.274;9.500;2022-09-09T04:35:53;12.80;99.90
15239;DHT22;7722;53.274;9.500;2022-09-09T04:38:20;12.80;99.90
15239;DHT22;7722;53.274;9.500;2022-09-09T04:40:50;12.80;99.90
15239;DHT22;7722;53.274;9.500;2022-09-09T04:43:19;12.90;99.90
15239;DHT22;7722;53.274;9.500;2022-09-09T04:45:48;12.90;99.90
15239;DHT22;7722;53.274;9.500;2022-09-09T04:48:15;13.00;99.90
15239;DHT22;7722;53.274;9.500;2022-09-09T04:50:43;13.00;99.90
15239;DHT22;7722;53.274;9.500;2022-09-09T04:53:10;13.00;99.90
15239;DHT22;7722;53.274;9.500;2022-09-09T04:55:37;13.00;99.90
15239;DHT22;7722;53.274;9.500;2022-09-09T04:58:05;13.00;99.90
15239;DHT22;7722;53.274;9.500;2022-09-09T05:00:32;13.00;99.90
15239;DHT22;7722;53.274;9.500;2022-09-09T05:03:02;13.00;99.90
15239;DHT22;7722;53.274;9.500;2022-09-09T05:05:31;13.00;99.90
15239;DHT22;7722;53.274;9.500;2022-09-09T05:08:02;13.00;99.90
15239;DHT22;7722;53.274;9.500;2022-09-09T05:10:30;13.10;99.90
15239;DHT22;7722;53.274;9.500;2022-09-09T05:12:57;13.10;99.90
15239;DHT22;7722;53.274;9.500;2022-09-09T05:15:24;13.10;99.90
15239;DHT22;7722;53.274;9.500;2022-09-09T05:17:51;13.10;99.90
15239;DHT22;7722;53.274;9.500;2022-09-09T05:20:19;13.20;99.90
15239;DHT22;7722;53.274;9.500;2022-09-09T05:22:46;13.20;99.90
15239;DHT22;7722;53.274;9.500;2022-09-09T05:25:16;13.20;99.90
15239;DHT22;7722;53.274;9.500;2022-09-09T05:27:44;13.30;99.90
15239;DHT22;7722;53.274;9.500;2022-09-09T05:30:11;13.40;99.90
15239;DHT22;7722;53.274;9.500;2022-09-09T05:32:38;13.40;99.90
15239;DHT22;7722;53.274;9.500;2022-09-09T05:35:06;13.50;99.90
15239;DHT22;7722;53.274;9.500;2022-09-09T05:37:33;13.60;99.90
15239;DHT22;7722;53.274;9.500;2022-09-09T05:40:01;13.60;99.90
15239;DHT22;7722;53.274;9.500;2022-09-09T05:42:31;13.60;99.90
15239;DHT22;7722;53.274;9.500;2022-09-09T05:44:58;13.60;99.90
15239;DHT22;7722;53.274;9.500;2022-09-09T05:47:25;13.70;99.90
15239;DHT22;7722;53.274;9.500;2022-09-09T05:49:53;13.70;99.90
15239;DHT22;7722;53.274;9.500;2022-09-09T05:52:21;13.60;99.90
15239;DHT22;7722;53.274;9.500;2022-09-09T05:54:48;13.70;99.90
15239;DHT22;7722;53.274;9.500;2022-09-09T05:57:15;13.80;99.90
15239;DHT22;7722;53.274;9.500;2022-09-09T05:59:44;13.90;99.90
15239;DHT22;7722;53.274;9.500;2022-09-09T06:02:11;14.00;99.90
15239;DHT22;7722;53.274;9.500;2022-09-09T06:04:39;14.00;99.90
15239;DHT22;7722;53.274;9.500;2022-09-09T06:07:06;14.10;99.90
15239;DHT22;7722;53.274;9.500;2022-09-09T06:09:33;14.20;99.90
15239;DHT22;7722;53.274;9.500;2022-09-09T06:12:00;14.30;99.90
15239;DHT22;7722;53.274;9.500;2022-09-09T06:14:27;14.30;99.90
15239;DHT22;7722;53.274;9.500;2022-09-09T06:16:55;14.30;99.90
15239;DHT22;7722;53.274;9.500;2022-09-09T06:19:22;14.40;99.90
15239;DHT22;7722;53.274;9.500;2022-09-09T06:21:52;14.40;99.90
15239;DHT22;7722;53.274;9.500;2022-09-09T06:24:20;14.50;99.90
15239;DHT22;7722;53.274;9.500;2022-09-09T06:26:47;14.50;99.90
15239;DHT22;7722;53.274;9.500;2022-09-09T06:29:14;14.50;99.90
15239;DHT22;7722;53.274;9.500;2022-09-09T06:31:41;14.50;99.90
15239;DHT22;7722;53.274;9.500;2022-09-09T06:34:10;14.50;99.90
15239;DHT22;7722;53.274;9.500;2022-09-09T06:36:38;14.50;99.90
15239;DHT22;7722;53.274;9.500;2022-09-09T06:39:05;14.50;99.90
15239;DHT22;7722;53.274;9.500;2022-09-09T06:41:34;14.60;99.90
15239;DHT22;7722;53.274;9.500;2022-09-09T06:44:01;14.60;99.90
15239;DHT22;7722;53.274;9.500;2022-09-09T06:46:29;14.60;99.90
15239;DHT22;7722;53.274;9.500;2022-09-09T06:48:59;14.60;99.90
15239;DHT22;7722;53.274;9.500;2022-09-09T06:51:29;14.60;99.90
15239;DHT22;7722;53.274;9.500;2022-09-09T06:53:58;14.60;99.90
15239;DHT22;7722;53.274;9.500;2022-09-09T06:56:26;14.70;99.90
15239;DHT22;7722;53.274;9.500;2022-09-09T06:58:55;14.80;99.90
15239;DHT22;7722;53.274;9.500;2022-09-09T07:01:24;14.80;99.90
15239;DHT22;7722;53.274;9.500;2022-09-09T07:03:52;14.80;99.90
15239;DHT22;7722;53.274;9.500;2022-09-09T07:06:21;14.90;99.90
15239;DHT22;7722;53.274;9.500;2022-09-09T07:08:51;15.00;99.90
15239;DHT22;7722;53.274;9.500;2022-09-09T07:11:20;15.00;99.90
15239;DHT22;7722;53.274;9.500;2022-09-09T07:13:48;15.20;99.90
15239;DHT22;7722;53.274;9.500;2022-09-09T07:16:17;15.20;99.90
15239;DHT22;7722;53.274;9.500;2022-09-09T07:18:45;15.40;99.90
15239;DHT22;7722;53.274;9.500;2022-09-09T07:21:13;15.40;99.90
15239;DHT22;7722;53.274;9.500;2022-09-09T07:23:41;15.50;99.90
15239;DHT22;7722;53.274;9.500;2022-09-09T07:26:10;15.60;99.90
15239;DHT22;7722;53.274;9.500;2022-09-09T07:28:38;15.60;99.90
15239;DHT22;7722;53.274;9.500;2022-09-09T07:31:06;15.80;99.90
15239;DHT22;7722;53.274;9.500;2022-09-09T07:33:34;15.80;99.90
15239;DHT22;7722;53.274;9.500;2022-09-09T07:36:04;15.90;99.90
15239;DHT22;7722;53.274;9.500;2022-09-09T07:38:32;15.90;99.90
15239;DHT22;7722;53.274;9.500;2022-09-09T07:41:04;15.80;99.90
15239;DHT22;7722;53.274;9.500;2022-09-09T07:43:33;15.80;99.90
15239;DHT22;7722;53.274;9.500;2022-09-09T07:46:00;15.80;99.90
15239;DHT22;7722;53.274;9.500;2022-09-09T07:48:28;15.90;99.90
15239;DHT22;7722;53.274;9.500;2022-09-09T07:51:07;16.00;99.90
15239;DHT22;7722;53.274;9.500;2022-09-09T07:53:34;16.20;99.90
15239;DHT22;7722;53.274;9.500;2022-09-09T07:56:05;16.30;99.90
15239;DHT22;7722;53.274;9.500;2022-09-09T07:58:33;16.50;99.90
15239;DHT22;7722;53.274;9.500;2022-09-09T08:01:01;16.60;99.90
15239;DHT22;7722;53.274;9.500;2022-09-09T08:03:32;16.70;99.90
15239;DHT22;7722;53.274;9.500;2022-09-09T08:06:00;16.80;99.90
15239;DHT22;7722;53.274;9.500;2022-09-09T08:08:28;16.80;99.90
15239;DHT22;7722;53.274;9.500;2022-09-09T08:11:02;17.00;99.90
15239;DHT22;7722;53.274;9.500;2022-09-09T08:13:30;17.20;99.90
15239;DHT22;7722;53.274;9.500;2022-09-09T08:16:06;17.30;99.90
15239;DHT22;7722;53.274;9.500;2022-09-09T08:18:33;17.40;99.90
15239;DHT22;7722;53.274;9.500;2022-09-09T08:21:11;17.50;99.90
15239;DHT22;7722;53.274;9.500;2022-09-09T08:23:39;17.50;99.90
15239;DHT22;7722;53.274;9.500;2022-09-09T08:26:10;17.50;99.90
15239;DHT22;7722;53.274;9.500;2022-09-09T08:28:38;17.50;99.90
15239;DHT22;7722;53.274;9.500;2022-09-09T08:31:08;17.50;99.90
15239;DHT22;7722;53.274;9.500;2022-09-09T08:33:36;17.50;99.90
15239;DHT22;7722;53.274;9.500;2022-09-09T08:36:05;17.60;99.90
15239;DHT22;7722;53.274;9.500;2022-09-09T08:38:32;17.80;99.90
15239;DHT22;7722;53.274;9.500;2022-09-09T08:41:10;18.30;99.90
15239;DHT22;7722;53.274;9.500;2022-09-09T08:43:41;18.60;99.90
15239;DHT22;7722;53.274;9.500;2022-09-09T08:46:15;19.00;99.90
15239;DHT22;7722;53.274;9.500;2022-09-09T08:48:52;19.20;99.90
15239;DHT22;7722;53.274;9.500;2022-09-09T08:51:27;19.20;99.90
15239;DHT22;7722;53.274;9.500;2022-09-09T08:53:55;19.40;99.90
15239;DHT22;7722;53.274;9.500;2022-09-09T08:56:26;19.50;99.90
15239;DHT22;7722;53.274;9.500;2022-09-09T08:58:55;19.70;99.90
15239;DHT22;7722;53.274;9.500;2022-09-09T09:01:39;20.00;99.90
15239;DHT22;7722;53.274;9.500;2022-09-09T09:04:22;20.00;99.90
15239;DHT22;7722;53.274;9.500;2022-09-09T09:07:03;20.10;99.90
15239;DHT22;7722;53.274;9.500;2022-09-09T09:09:37;20.40;99.90
15239;DHT22;7722;53.274;9.500;2022-09-09T09:12:15;20.40;99.90
15239;DHT22;7722;53.274;9.500;2022-09-09T09:14:43;20.60;99.90
15239;DHT22;7722;53.274;9.500;2022-09-09T09:17:17;20.90;99.90
15239;DHT22;7722;53.274;9.500;2022-09-09T09:19:46;21.20;99.90
15239;DHT22;7722;53.274;9.500;2022-09-09T09:22:17;21.20;99.90
15239;DHT22;7722;53.274;9.500;2022-09-09T09:24:51;21.40;99.90
15239;DHT22;7722;53.274;9.500;2022-09-09T09:27:25;21.80;99.90
15239;DHT22;7722;53.274;9.500;2022-09-09T09:29:55;21.60;99.90
15239;DHT22;7722;53.274;9.500;2022-09-09T09:32:28;21.50;99.90
15239;DHT22;7722;53.274;9.500;2022-09-09T09:34:58;21.10;99.90
15239;DHT22;7722;53.274;9.500;2022-09-09T09:37:32;20.70;99.90
15239;DHT22;7722;53.274;9.500;2022-09-09T09:40:08;20.60;99.90
15239;DHT22;7722;53.274;9.500;2022-09-09T09:42:36;20.60;99.90
15239;DHT22;7722;53.274;9.500;2022-09-09T09:45:17;20.50;99.90
15239;DHT22;7722;53.274;9.500;2022-09-09T09:47:58;20.40;99.90
15239;DHT22;7722;53.274;9.500;2022-09-09T09:50:25;20.10;99.90
15239;DHT22;7722;53.274;9.500;2022-09-09T09:52:56;20.10;99.90
15239;DHT22;7722;53.274;9.500;2022-09-09T09:55:24;20.00;99.90
15239;DHT22;7722;53.274;9.500;2022-09-09T09:57:53;20.00;99.90
15239;DHT22;7722;53.274;9.500;2022-09-09T10:00:22;19.90;99.90
15239;DHT22;7722;53.274;9.500;2022-09-09T10:02:51;19.90;99.90
15239;DHT22;7722;53.274;9.500;2022-09-09T10:05:20;19.90;99.90
15239;DHT22;7722;53.274;9.500;2022-09-09T10:08:00;19.90;99.90
15239;DHT22;7722;53.274;9.500;2022-09-09T10:10:48;19.90;99.90
15239;DHT22;7722;53.274;9.500;2022-09-09T10:13:20;20.00;99.90
15239;DHT22;7722;53.274;9.500;2022-09-09T10:15:59;20.40;99.90
15239;DHT22;7722;53.274;9.500;2022-09-09T10:18:39;20.90;99.90
15239;DHT22;7722;53.274;9.500;2022-09-09T10:21:20;21.30;99.90
15239;DHT22;7722;53.274;9.500;2022-09-09T10:24:04;21.70;99.90
15239;DHT22;7722;53.274;9.500;2022-09-09T10:26:42;22.30;99.90
15239;DHT22;7722;53.274;9.500;2022-09-09T10:29:39;22.20;99.90
15239;DHT22;7722;53.274;9.500;2022-09-09T10:32:33;22.50;99.90
15239;DHT22;7722;53.274;9.500;2022-09-09T10:35:10;22.00;99.90
15239;DHT22;7722;53.274;9.500;2022-09-09T10:37:51;21.70;99.90
15239;DHT22;7722;53.274;9.500;2022-09-09T10:40:30;21.90;99.90
15239;DHT22;7722;53.274;9.500;2022-09-09T10:43:07;21.70;99.90
15239;DHT22;7722;53.274;9.500;2022-09-09T10:45:41;21.70;99.90
15239;DHT22;7722;53.274;9.500;2022-09-09T10:48:28;21.80;99.90
15239;DHT22;7722;53.274;9.500;2022-09-09T10:51:07;21.60;99.90
15239;DHT22;7722;53.274;9.500;2022-09-09T10:53:46;21.30;99.90
15239;DHT22;7722;53.274;9.500;2022-09-09T10:56:18;21.20;99.90
15239;DHT22;7722;53.274;9.500;2022-09-09T10:58:49;21.10;99.90
15239;DHT22;7722;53.274;9.500;2022-09-09T11:01:21;21.60;99.90
15239;DHT22;7722;53.274;9.500;2022-09-09T11:03:56;22.00;99.90
15239;DHT22;7722;53.274;9.500;2022-09-09T11:06:30;21.90;99.90
15239;DHT22;7722;53.274;9.500;2022-09-09T11:09:00;22.10;99.90
15239;DHT22;7722;53.274;9.500;2022-09-09T11:11:32;22.10;99.90
15239;DHT22;7722;53.274;9.500;2022-09-09T11:14:03;22.10;99.90
15239;DHT22;7722;53.274;9.500;2022-09-09T11:16:38;22.10;99.90
15239;DHT22;7722;53.274;9.500;2022-09-09T11:19:15;21.90;99.90
15239;DHT22;7722;53.274;9.500;2022-09-09T11:21:47;21.50;99.90
15239;DHT22;7722;53.274;9.500;2022-09-09T11:24:21;21.40;99.90
15239;DHT22;7722;53.274;9.500;2022-09-09T11:26:51;20.80;99.90
15239;DHT22;7722;53.274;9.500;2022-09-09T11:29:45;20.30;99.90
15239;DHT22;7722;53.274;9.500;2022-09-09T11:32:27;20.10;99.90
15239;DHT22;7722;53.274;9.500;2022-09-09T11:35:03;20.20;99.90
15239;DHT22;7722;53.274;9.500;2022-09-09T11:38:14;19.90;99.90
15239;DHT22;7722;53.274;9.500;2022-09-09T11:40:44;19.80;99.90
15239;DHT22;7722;53.274;9.500;2022-09-09T11:43:13;19.50;99.90
15239;DHT22;7722;53.274;9.500;2022-09-09T11:45:42;19.40;99.90
15239;DHT22;7722;53.274;9.500;2022-09-09T11:48:23;19.30;99.90
15239;DHT22;7722;53.274;9.500;2022-09-09T11:50:59;19.00;99.90
15239;DHT22;7722;53.274;9.500;2022-09-09T11:53:28;18.90;99.90
15239;DHT22;7722;53.274;9.500;2022-09-09T11:56:26;18.90;99.90
15239;DHT22;7722;53.274;9.500;2022-09-09T11:58:57;19.00;99.90
15239;DHT22;7722;53.274;9.500;2022-09-09T12:01:30;19.10;99.90
15239;DHT22;7722;53.274;9.500;2022-09-09T12:04:30;19.20;99.90
15239;DHT22;7722;53.274;9.500;2022-09-09T12:07:00;19.40;99.90
15239;DHT22;7722;53.274;9.500;2022-09-09T12:09:45;19.50;99.90
15239;DHT22;7722;53.274;9.500;2022-09-09T12:12:28;19.30;99.90
15239;DHT22;7722;53.274;9.500;2022-09-09T12:17:42;19.10;99.90
15239;DHT22;7722;53.274;9.500;2022-09-09T12:20:14;19.00;99.90
15239;DHT22;7722;53.274;9.500;2022-09-09T12:22:56;19.00;99.90
15239;DHT22;7722;53.274;9.500;2022-09-09T12:25:36;19.10;99.90
15239;DHT22;7722;53.274;9.500;2022-09-09T12:28:13;19.00;99.90
15239;DHT22;7722;53.274;9.500;2022-09-09T12:30:46;19.10;99.90
15239;DHT22;7722;53.274;9.500;2022-09-09T12:33:18;19.10;99.90
15239;DHT22;7722;53.274;9.500;2022-09-09T12:35:49;19.00;99.90
15239;DHT22;7722;53.274;9.500;2022-09-09T12:38:26;19.00;99.90
15239;DHT22;7722;53.274;9.500;2022-09-09T12:40:58;19.00;99.90
15239;DHT22;7722;53.274;9.500;2022-09-09T12:43:27;19.10;99.90
15239;DHT22;7722;53.274;9.500;2022-09-09T12:45:57;18.90;99.90
15239;DHT22;7722;53.274;9.500;2022-09-09T12:48:34;18.80;99.90
15239;DHT22;7722;53.274;9.500;2022-09-09T12:51:02;18.70;99.90
15239;DHT22;7722;53.274;9.500;2022-09-09T12:53:34;18.80;99.90
15239;DHT22;7722;53.274;9.500;2022-09-09T12:56:04;18.80;99.90
15239;DHT22;7722;53.274;9.500;2022-09-09T12:58:35;18.80;99.90
15239;DHT22;7722;53.274;9.500;2022-09-09T13:01:04;18.70;99.90
15239;DHT22;7722;53.274;9.500;2022-09-09T13:03:32;18.60;99.90
15239;DHT22;7722;53.274;9.500;2022-09-09T13:06:13;18.50;99.90
15239;DHT22;7722;53.274;9.500;2022-09-09T13:08:44;18.30;99.90
15239;DHT22;7722;53.274;9.500;2022-09-09T13:11:14;18.30;99.90
15239;DHT22;7722;53.274;9.500;2022-09-09T13:13:50;18.20;99.90
15239;DHT22;7722;53.274;9.500;2022-09-09T13:16:20;18.00;99.90
15239;DHT22;7722;53.274;9.500;2022-09-09T13:18:49;17.80;99.90
15239;DHT22;7722;53.274;9.500;2022-09-09T13:21:16;17.70;99.90
15239;DHT22;7722;53.274;9.500;2022-09-09T13:23:49;17.60;99.90
15239;DHT22;7722;53.274;9.500;2022-09-09T13:26:24;17.50;99.90
15239;DHT22;7722;53.274;9.500;2022-09-09T13:28:53;17.30;99.90
15239;DHT22;7722;53.274;9.500;2022-09-09T13:31:22;17.30;99.90
15239;DHT22;7722;53.274;9.500;2022-09-09T13:33:50;17.20;99.90
15239;DHT22;7722;53.274;9.500;2022-09-09T13:36:28;17.00;99.90
15239;DHT22;7722;53.274;9.500;2022-09-09T13:38:57;16.90;99.90
15239;DHT22;7722;53.274;9.500;2022-09-09T13:41:29;16.80;99.90
15239;DHT22;7722;53.274;9.500;2022-09-09T13:43:58;16.70;99.90
15239;DHT22;7722;53.274;9.500;2022-09-09T13:46:31;16.60;99.90
15239;DHT22;7722;53.274;9.500;2022-09-09T13:49:00;16.40;99.90
15239;DHT22;7722;53.274;9.500;2022-09-09T13:51:35;16.30;99.90
15239;DHT22;7722;53.274;9.500;2022-09-09T13:54:03;16.40;99.90
15239;DHT22;7722;53.274;9.500;2022-09-09T13:56:33;16.30;99.90
15239;DHT22;7722;53.274;9.500;2022-09-09T13:59:00;16.20;99.90
15239;DHT22;7722;53.274;9.500;2022-09-09T14:01:27;16.10;99.90
15239;DHT22;7722;53.274;9.500;2022-09-09T14:03:54;16.20;99.90
15239;DHT22;7722;53.274;9.500;2022-09-09T14:06:22;16.10;99.90
15239;DHT22;7722;53.274;9.500;2022-09-09T14:08:49;16.10;99.90
15239;DHT22;7722;53.274;9.500;2022-09-09T14:11:17;16.20;99.90
15239;DHT22;7722;53.274;9.500;2022-09-09T14:13:46;16.20;99.90
15239;DHT22;7722;53.274;9.500;2022-09-09T14:16:14;16.30;99.90
15239;DHT22;7722;53.274;9.500;2022-09-09T14:18:41;16.40;99.90
15239;DHT22;7722;53.274;9.500;2022-09-09T14:21:09;16.40;99.90
15239;DHT22;7722;53.274;9.500;2022-09-09T14:23:36;16.40;99.90
15239;DHT22;7722;53.274;9.500;2022-09-09T14:26:04;16.50;99.90
15239;DHT22;7722;53.274;9.500;2022-09-09T14:28:31;16.50;99.90
15239;DHT22;7722;53.274;9.500;2022-09-09T14:31:01;16.60;99.90
15239;DHT22;7722;53.274;9.500;2022-09-09T14:33:28;16.60;99.90
15239;DHT22;7722;53.274;9.500;2022-09-09T14:35:56;16.70;99.90
15239;DHT22;7722;53.274;9.500;2022-09-09T14:38:24;16.90;99.90
15239;DHT22;7722;53.274;9.500;2022-09-09T14:40:51;17.10;99.90
15239;DHT22;7722;53.274;9.500;2022-09-09T14:43:18;17.30;99.90
15239;DHT22;7722;53.274;9.500;2022-09-09T14:45:45;17.40;99.90
15239;DHT22;7722;53.274;9.500;2022-09-09T14:48:15;17.60;99.90
15239;DHT22;7722;53.274;9.500;2022-09-09T14:50:42;17.90;99.90
15239;DHT22;7722;53.274;9.500;2022-09-09T14:53:09;18.50;99.90
15239;DHT22;7722;53.274;9.500;2022-09-09T14:55:36;18.80;99.90
15239;DHT22;7722;53.274;9.500;2022-09-09T14:58:04;19.00;99.90
15239;DHT22;7722;53.274;9.500;2022-09-09T15:00:32;19.00;99.90
15239;DHT22;7722;53.274;9.500;2022-09-09T15:02:59;18.90;99.90
15239;DHT22;7722;53.274;9.500;2022-09-09T15:05:28;19.20;99.90
15239;DHT22;7722;53.274;9.500;2022-09-09T15:07:56;19.30;99.90
15239;DHT22;7722;53.274;9.500;2022-09-09T15:10:25;19.50;99.90
15239;DHT22;7722;53.274;9.500;2022-09-09T15:12:52;19.60;99.90
15239;DHT22;7722;53.274;9.500;2022-09-09T15:15:19;19.40;99.90
15239;DHT22;7722;53.274;9.500;2022-09-09T15:17:46;19.40;99.90
15239;DHT22;7722;53.274;9.500;2022-09-09T15:20:13;19.40;99.90
15239;DHT22;7722;53.274;9.500;2022-09-09T15:22:43;19.30;99.90
15239;DHT22;7722;53.274;9.500;2022-09-09T15:25:10;19.10;99.90
15239;DHT22;7722;53.274;9.500;2022-09-09T15:27:38;19.10;99.90
15239;DHT22;7722;53.274;9.500;2022-09-09T15:30:07;19.10;99.90
15239;DHT22;7722;53.274;9.500;2022-09-09T15:32:34;18.90;99.90
15239;DHT22;7722;53.274;9.500;2022-09-09T15:35:01;18.80;99.90
15239;DHT22;7722;53.274;9.500;2022-09-09T15:37:29;18.50;99.90
15239;DHT22;7722;53.274;9.500;2022-09-09T15:39:57;18.50;99.90
15239;DHT22;7722;53.274;9.500;2022-09-09T15:42:25;18.30;99.90
15239;DHT22;7722;53.274;9.500;2022-09-09T15:44:52;18.30;99.90
15239;DHT22;7722;53.274;9.500;2022-09-09T15:47:20;18.10;99.90
15239;DHT22;7722;53.274;9.500;2022-09-09T15:49:47;18.10;99.90
15239;DHT22;7722;53.274;9.500;2022-09-09T15:52:14;18.00;99.90
15239;DHT22;7722;53.274;9.500;2022-09-09T15:54:41;18.00;99.90
15239;DHT22;7722;53.274;9.500;2022-09-09T15:57:11;18.00;99.90
15239;DHT22;7722;53.274;9.500;2022-09-09T15:59:39;17.80;99.90
15239;DHT22;7722;53.274;9.500;2022-09-09T16:02:06;17.70;99.90
15239;DHT22;7722;53.274;9.500;2022-09-09T16:04:33;17.70;99.90
15239;DHT22;7722;53.274;9.500;2022-09-09T16:07:03;17.60;99.90
15239;DHT22;7722;53.274;9.500;2022-09-09T16:09:31;17.50;99.90
15239;DHT22;7722;53.274;9.500;2022-09-09T16:11:59;17.40;99.90
15239;DHT22;7722;53.274;9.500;2022-09-09T16:14:28;17.30;99.90
15239;DHT22;7722;53.274;9.500;2022-09-09T16:16:59;17.20;99.90
15239;DHT22;7722;53.274;9.500;2022-09-09T16:19:26;17.20;99.90
15239;DHT22;7722;53.274;9.500;2022-09-09T16:21:53;17.10;99.90
15239;DHT22;7722;53.274;9.500;2022-09-09T16:24:20;17.00;99.90
15239;DHT22;7722;53.274;9.500;2022-09-09T16:26:49;16.90;99.90